Terminal Aerodrome Forecast
Issued by NWS

Home | Current Version | Previous Version | Text Only | Print | Product List | Glossary On
Versions: 1 2 3 4 5 6 7 8 9 10 11 12
051
FTPA31 PHFO 280531
TAFHOG
TAF
PHOG 280531Z 2806/2906 VRB05KT P6SM VCSH SCT025 BKN050
     FM281000 14005KT P6SM VCSH SCT025 BKN050
     FM282000 34010KT P6SM VCSH SCT025 BKN045
     FM290400 VRB05KT P6SM VCSH SCT025 BKN045
      AMD LTD TO VIS AND WIND 2809/2816=

USA.gov is the U.S. government's official web portal to all federal, state and local government web resources and services.